createdAt,value
2022-08-31T00:00:10.398Z,14.32
2022-08-31T00:02:57.077Z,14.74
2022-08-31T00:05:24.695Z,14.83
2022-08-31T00:07:52.652Z,14.70
2022-08-31T00:10:32.228Z,14.68
2022-08-31T00:13:01.229Z,15.09
2022-08-31T00:15:30.515Z,14.83
2022-08-31T00:17:57.500Z,14.92
2022-08-31T00:20:33.238Z,14.96
2022-08-31T00:23:12.487Z,14.75
2022-08-31T00:25:41.629Z,14.72
2022-08-31T00:28:09.403Z,14.50
2022-08-31T00:30:37.005Z,14.41
2022-08-31T00:33:05.327Z,14.56
2022-08-31T00:35:36.237Z,14.57
2022-08-31T00:38:05.735Z,14.53
2022-08-31T00:40:32.914Z,14.42
2022-08-31T00:43:05.051Z,14.32
2022-08-31T00:45:32.484Z,14.36
2022-08-31T00:47:59.299Z,14.31
2022-08-31T00:50:26.613Z,14.51
2022-08-31T00:52:57.721Z,14.30
2022-08-31T00:55:34.009Z,14.60
2022-08-31T00:58:06.666Z,14.51
2022-08-31T01:00:33.528Z,14.45
2022-08-31T01:03:02.311Z,14.36
2022-08-31T01:05:31.052Z,14.65
2022-08-31T01:08:00.304Z,14.84
2022-08-31T01:10:32.061Z,14.73
2022-08-31T01:12:59.761Z,14.76
2022-08-31T01:15:28.589Z,14.83
2022-08-31T01:17:57.623Z,14.54
2022-08-31T01:20:33.425Z,14.62
2022-08-31T01:23:22.446Z,14.77
2022-08-31T01:25:51.198Z,14.61
2022-08-31T01:28:18.480Z,14.61
2022-08-31T01:31:02.327Z,14.87
2022-08-31T01:33:30.039Z,14.58
2022-08-31T01:35:57.984Z,14.38
2022-08-31T01:38:25.499Z,14.66
2022-08-31T01:40:55.970Z,14.47
2022-08-31T01:43:23.759Z,14.48
2022-08-31T01:45:51.507Z,14.64
2022-08-31T01:48:18.384Z,14.86
2022-08-31T01:50:45.301Z,14.60
2022-08-31T01:53:12.201Z,14.79
2022-08-31T01:55:38.981Z,14.70
2022-08-31T01:58:05.902Z,14.44
2022-08-31T02:00:33.066Z,14.23
2022-08-31T02:03:02.001Z,14.62
2022-08-31T02:05:29.335Z,14.60
2022-08-31T02:07:57.216Z,14.59
2022-08-31T02:10:24.908Z,14.24
2022-08-31T02:12:51.728Z,14.54
2022-08-31T02:15:18.696Z,14.41
2022-08-31T02:17:45.712Z,14.41
2022-08-31T02:20:15.364Z,14.42
2022-08-31T02:22:42.324Z,14.74
2022-08-31T02:25:09.956Z,14.81
2022-08-31T02:27:37.864Z,14.60
2022-08-31T02:30:12.653Z,14.85
2022-08-31T02:32:39.663Z,14.39
2022-08-31T02:35:07.536Z,14.41
2022-08-31T02:37:34.375Z,14.44
2022-08-31T02:40:03.964Z,14.56
2022-08-31T02:42:52.123Z,14.57
2022-08-31T02:45:18.820Z,14.63
2022-08-31T02:47:45.632Z,14.72
2022-08-31T02:50:12.364Z,14.63
2022-08-31T02:52:39.165Z,14.45
2022-08-31T02:55:06.610Z,14.48
2022-08-31T02:57:33.530Z,14.51
2022-08-31T03:00:00.267Z,14.70
2022-08-31T03:02:31.714Z,14.22
2022-08-31T03:05:01.732Z,14.62
2022-08-31T03:07:28.472Z,14.68
2022-08-31T03:09:55.348Z,14.51
2022-08-31T03:12:22.132Z,14.40
2022-08-31T03:14:48.875Z,14.32
2022-08-31T03:17:15.647Z,14.23
2022-08-31T03:19:42.386Z,14.44
2022-08-31T03:22:09.356Z,14.43
2022-08-31T03:24:36.140Z,14.56
2022-08-31T03:27:02.851Z,14.31
2022-08-31T03:29:29.572Z,14.62
2022-08-31T03:31:56.521Z,14.56
2022-08-31T03:34:23.293Z,14.41
2022-08-31T03:36:50.060Z,14.44
2022-08-31T03:39:16.851Z,14.34
2022-08-31T03:41:43.644Z,14.50
2022-08-31T03:44:10.398Z,14.53
2022-08-31T03:46:37.955Z,14.46
2022-08-31T03:49:04.760Z,14.80
2022-08-31T03:51:31.515Z,14.51
2022-08-31T03:53:58.236Z,14.35
2022-08-31T03:56:25.020Z,14.21
2022-08-31T03:58:52.001Z,14.29
2022-08-31T04:01:18.775Z,14.53
2022-08-31T04:03:45.523Z,14.41
2022-08-31T04:06:13.599Z,14.68
2022-08-31T04:08:40.902Z,14.67
2022-08-31T04:11:18.379Z,14.79
2022-08-31T04:13:52.268Z,14.41
2022-08-31T04:16:22.109Z,14.53
2022-08-31T04:18:48.860Z,14.66
2022-08-31T04:21:23.793Z,14.70
2022-08-31T04:23:52.112Z,14.63
2022-08-31T04:26:40.967Z,14.47
2022-08-31T04:29:13.160Z,14.21
2022-08-31T04:31:40.668Z,14.27
2022-08-31T04:34:07.428Z,14.07
2022-08-31T04:36:34.164Z,14.23
2022-08-31T04:39:03.163Z,14.38
2022-08-31T04:41:32.004Z,14.59
2022-08-31T04:44:00.410Z,14.50
2022-08-31T04:46:28.279Z,14.13
2022-08-31T04:48:55.820Z,14.31
2022-08-31T04:51:28.643Z,14.50
2022-08-31T04:53:56.072Z,14.47
2022-08-31T04:56:30.040Z,14.44
2022-08-31T04:59:00.560Z,14.31
2022-08-31T05:01:33.556Z,14.24
2022-08-31T05:04:10.931Z,14.11
2022-08-31T05:06:40.946Z,14.37
2022-08-31T05:09:11.569Z,14.18
2022-08-31T05:11:39.195Z,14.21
2022-08-31T05:14:07.798Z,14.10
2022-08-31T05:16:38.327Z,14.35
2022-08-31T05:19:05.357Z,14.23
2022-08-31T05:21:37.519Z,14.42
2022-08-31T05:24:36.024Z,14.52
2022-08-31T05:27:03.300Z,14.10
2022-08-31T05:32:11.820Z,14.47
2022-08-31T05:34:38.977Z,14.17
2022-08-31T05:37:06.726Z,14.31
2022-08-31T05:39:38.209Z,14.47
2022-08-31T05:42:11.012Z,14.27
2022-08-31T06:16:54.264Z,14.57
2022-08-31T06:35:36.452Z,14.78
2022-08-31T11:41:47.013Z,18.25
2022-08-31T11:44:39.683Z,18.24
2022-08-31T11:47:07.418Z,18.19
2022-08-31T11:49:46.681Z,18.49
2022-08-31T11:52:32.293Z,18.40
2022-08-31T11:55:06.824Z,18.27
2022-08-31T11:58:10.145Z,18.49
2022-08-31T12:00:58.267Z,18.31
2022-08-31T12:03:53.081Z,17.94
2022-08-31T12:06:27.718Z,18.24
2022-08-31T12:09:28.506Z,18.11
2022-08-31T12:12:06.650Z,18.43
2022-08-31T12:14:51.480Z,18.50
2022-08-31T12:17:48.567Z,18.56
2022-08-31T12:21:17.165Z,18.59
2022-08-31T12:23:53.131Z,18.30
2022-08-31T12:26:34.287Z,18.18
2022-08-31T12:29:14.640Z,17.94
2022-08-31T12:31:43.934Z,18.47
2022-08-31T12:34:19.708Z,18.69
2022-08-31T12:36:50.564Z,18.64
2022-08-31T12:39:28.929Z,18.55
2022-08-31T12:41:59.142Z,18.79
2022-08-31T12:44:31.310Z,18.81
2022-08-31T12:47:24.436Z,18.44
2022-08-31T12:50:22.104Z,17.83
2022-08-31T12:53:24.165Z,18.64
2022-08-31T12:56:28.042Z,18.28
2022-08-31T12:59:15.098Z,18.58
2022-08-31T13:01:46.796Z,18.56
2022-08-31T13:04:16.208Z,18.12
2022-08-31T13:06:45.254Z,17.91
2022-08-31T13:09:26.385Z,17.82
2022-08-31T13:11:57.169Z,18.03
2022-08-31T13:14:27.837Z,18.11
2022-08-31T17:18:44.335Z,16.75
2022-08-31T17:21:19.025Z,16.36
2022-08-31T17:23:48.652Z,16.29
2022-08-31T17:26:16.184Z,16.63
2022-08-31T17:28:44.430Z,16.16
2022-08-31T17:31:11.283Z,16.24
2022-08-31T17:36:20.192Z,16.12
2022-08-31T17:38:48.788Z,16.46
2022-08-31T18:14:01.253Z,15.45
2022-08-31T18:27:19.473Z,15.24
2022-08-31T18:35:22.900Z,15.16
2022-08-31T18:37:49.670Z,15.19
2022-08-31T18:40:35.028Z,15.18
2022-08-31T18:43:20.272Z,15.11
2022-08-31T18:45:50.604Z,15.26
2022-08-31T18:48:27.146Z,15.43
2022-08-31T18:50:55.675Z,15.58
2022-08-31T18:53:29.254Z,15.44
2022-08-31T18:56:10.864Z,15.33
2022-08-31T18:58:38.529Z,15.45
2022-08-31T19:01:07.494Z,15.30
2022-08-31T19:03:34.300Z,15.25
2022-08-31T19:06:00.957Z,15.32
2022-08-31T19:08:28.839Z,15.26
2022-08-31T19:10:59.017Z,15.09
2022-08-31T19:13:32.181Z,15.18
2022-08-31T19:16:10.746Z,15.32
2022-08-31T19:18:42.345Z,15.04
2022-08-31T19:21:22.359Z,14.98
2022-08-31T19:23:49.710Z,14.91
2022-08-31T19:26:30.274Z,14.72
2022-08-31T19:29:06.075Z,14.75
2022-08-31T19:31:38.704Z,14.95
2022-08-31T19:34:07.080Z,14.83
2022-08-31T19:36:37.499Z,14.77
2022-08-31T19:39:06.782Z,14.89
2022-08-31T19:41:35.224Z,14.84
2022-08-31T19:44:08.130Z,14.67
2022-08-31T19:46:36.208Z,14.93
2022-08-31T19:49:03.645Z,14.61
2022-08-31T19:51:32.404Z,14.55
2022-08-31T19:54:00.955Z,14.42
2022-08-31T19:56:30.559Z,14.53
2022-08-31T19:58:59.420Z,14.58
2022-08-31T20:01:34.346Z,14.54
2022-08-31T20:04:16.338Z,14.46
2022-08-31T20:06:45.540Z,14.19
2022-08-31T20:09:13.380Z,14.42
2022-08-31T20:11:40.812Z,14.24
2022-08-31T20:14:07.716Z,14.35
2022-08-31T20:16:41.849Z,14.25
2022-08-31T20:19:11.385Z,14.28
2022-08-31T20:21:40.647Z,14.20
2022-08-31T20:24:13.002Z,14.30
2022-08-31T20:26:47.418Z,14.21
2022-08-31T20:29:20.742Z,14.18
2022-08-31T20:31:50.241Z,14.19
2022-08-31T20:34:18.903Z,14.18
2022-08-31T20:36:49.327Z,14.12
2022-08-31T20:39:17.712Z,13.83
2022-08-31T20:41:48.492Z,13.97
2022-08-31T20:44:29.025Z,14.08
2022-08-31T20:47:17.624Z,14.12
2022-08-31T20:49:53.804Z,14.01
2022-08-31T20:52:22.234Z,13.80
2022-08-31T20:54:52.394Z,13.63
2022-08-31T20:57:32.274Z,13.70
2022-08-31T21:00:04.487Z,13.69
2022-08-31T21:02:31.972Z,13.72
2022-08-31T21:05:10.329Z,13.45
2022-08-31T21:07:45.870Z,13.58
2022-08-31T21:10:12.610Z,13.78
2022-08-31T21:12:39.363Z,13.41
2022-08-31T21:15:11.243Z,13.47
2022-08-31T21:17:40.665Z,13.40
2022-08-31T21:20:08.344Z,13.54
2022-08-31T21:22:35.225Z,13.30
2022-08-31T21:25:02.339Z,13.54
2022-08-31T21:27:30.056Z,13.43
2022-08-31T21:29:57.226Z,13.46
2022-08-31T21:32:24.100Z,13.13
2022-08-31T21:34:55.737Z,13.35
2022-08-31T21:37:22.897Z,13.04
2022-08-31T21:39:51.001Z,13.00
2022-08-31T21:42:19.346Z,13.04
2022-08-31T21:44:46.100Z,13.08
2022-08-31T21:47:15.191Z,13.16
2022-08-31T21:49:43.924Z,13.13
2022-08-31T21:52:12.447Z,12.98
2022-08-31T21:54:41.042Z,12.86
2022-08-31T21:57:07.764Z,13.00
2022-08-31T21:59:36.621Z,13.07
2022-08-31T22:02:06.834Z,12.99
2022-08-31T22:04:35.369Z,13.04
2022-08-31T22:07:04.754Z,12.66
2022-08-31T22:09:31.775Z,12.78
2022-08-31T22:12:00.006Z,12.96
2022-08-31T22:14:32.038Z,12.78
2022-08-31T22:17:05.557Z,12.77
2022-08-31T22:19:36.737Z,12.96
2022-08-31T22:22:07.170Z,12.71
2022-08-31T22:24:36.115Z,12.93
2022-08-31T22:27:06.654Z,12.86
2022-08-31T22:29:35.417Z,12.56
2022-08-31T22:32:08.664Z,12.63
2022-08-31T22:34:36.199Z,12.89
2022-08-31T22:37:04.041Z,12.79
2022-08-31T22:39:31.224Z,12.42
2022-08-31T22:41:59.916Z,12.67
2022-08-31T22:44:34.303Z,12.54
2022-08-31T22:47:01.453Z,12.40
2022-08-31T22:49:28.189Z,12.37
2022-08-31T22:51:55.047Z,12.58
2022-08-31T22:54:22.996Z,12.71
2022-08-31T22:56:50.874Z,12.57
2022-08-31T22:59:24.807Z,12.77
2022-08-31T23:01:55.016Z,12.47
2022-08-31T23:04:26.401Z,12.65
2022-08-31T23:06:56.277Z,12.59
2022-08-31T23:09:27.879Z,12.49
2022-08-31T23:11:56.712Z,12.57
2022-08-31T23:14:24.002Z,12.57
2022-08-31T23:16:57.284Z,12.61
2022-08-31T23:19:26.467Z,12.78
2022-08-31T23:21:57.678Z,12.34
2022-08-31T23:24:37.435Z,12.46
2022-08-31T23:27:05.882Z,12.54
2022-08-31T23:29:35.943Z,12.53
2022-08-31T23:32:04.533Z,12.50
2022-08-31T23:34:34.036Z,12.18
2022-08-31T23:37:00.961Z,12.25
2022-08-31T23:39:27.735Z,12.21
2022-08-31T23:41:54.563Z,12.22
2022-08-31T23:44:21.778Z,12.08
2022-08-31T23:46:49.281Z,12.40
2022-08-31T23:49:20.077Z,12.43
2022-08-31T23:51:47.838Z,12.38
2022-08-31T23:54:16.363Z,12.15
2022-08-31T23:56:46.414Z,12.08
2022-08-31T23:59:19.854Z,12.01
